sensor_id;sensor_type;location;lat;lon;timestamp;pressure;altitude;pressure_sealevel;temperature;humidity
60099;BME280;62818;49.394;8.686;2023-03-25T00:00:17;99687.41;;;9.79;100.00
60099;BME280;62818;49.394;8.686;2023-03-25T00:01:18;99676.66;;;9.80;100.00
60099;BME280;62818;49.394;8.686;2023-03-25T00:02:20;99680.00;;;9.89;100.00
60099;BME280;62818;49.394;8.686;2023-03-25T00:03:29;99683.53;;;9.96;100.00
60099;BME280;62818;49.394;8.686;2023-03-25T00:04:34;99675.41;;;9.97;100.00
60099;BME280;62818;49.394;8.686;2023-03-25T00:05:38;99676.72;;;9.87;100.00
60099;BME280;62818;49.394;8.686;2023-03-25T00:06:42;99687.97;;;9.74;100.00
60099;BME280;62818;49.394;8.686;2023-03-25T00:07:43;99690.53;;;9.82;100.00
60099;BME280;62818;49.394;8.686;2023-03-25T00:08:45;99691.38;;;9.89;100.00
60099;BME280;62818;49.394;8.686;2023-03-25T00:09:46;99695.44;;;9.85;100.00
60099;BME280;62818;49.394;8.686;2023-03-25T00:10:54;99689.78;;;9.88;100.00
60099;BME280;62818;49.394;8.686;2023-03-25T00:11:56;99696.94;;;9.73;100.00
60099;BME280;62818;49.394;8.686;2023-03-25T00:12:57;99695.13;;;9.74;100.00
60099;BME280;62818;49.394;8.686;2023-03-25T00:14:03;99691.72;;;9.80;100.00
60099;BME280;62818;49.394;8.686;2023-03-25T00:15:06;99695.56;;;9.77;100.00
60099;BME280;62818;49.394;8.686;2023-03-25T00:16:08;99699.81;;;9.78;100.00
60099;BME280;62818;49.394;8.686;2023-03-25T00:17:09;99697.69;;;9.67;100.00
60099;BME280;62818;49.394;8.686;2023-03-25T00:18:10;99694.66;;;9.70;100.00
60099;BME280;62818;49.394;8.686;2023-03-25T00:19:11;99706.50;;;9.74;100.00
60099;BME280;62818;49.394;8.686;2023-03-25T00:20:12;99712.06;;;9.79;100.00
60099;BME280;62818;49.394;8.686;2023-03-25T00:21:13;99708.31;;;9.88;100.00
60099;BME280;62818;49.394;8.686;2023-03-25T00:22:14;99707.13;;;9.76;100.00
60099;BME280;62818;49.394;8.686;2023-03-25T00:23:16;99725.78;;;9.68;100.00
60099;BME280;62818;49.394;8.686;2023-03-25T00:24:17;99723.09;;;9.83;100.00
60099;BME280;62818;49.394;8.686;2023-03-25T00:25:17;99721.91;;;9.85;100.00
60099;BME280;62818;49.394;8.686;2023-03-25T00:26:19;99716.59;;;9.85;100.00
60099;BME280;62818;49.394;8.686;2023-03-25T00:27:20;99720.16;;;9.92;100.00
60099;BME280;62818;49.394;8.686;2023-03-25T00:28:20;99719.09;;;9.72;100.00
60099;BME280;62818;49.394;8.686;2023-03-25T00:29:21;99719.97;;;9.58;100.00
60099;BME280;62818;49.394;8.686;2023-03-25T00:30:21;99716.84;;;9.69;100.00
60099;BME280;62818;49.394;8.686;2023-03-25T00:31:22;99706.41;;;9.82;100.00
60099;BME280;62818;49.394;8.686;2023-03-25T00:32:22;99708.44;;;9.80;100.00
60099;BME280;62818;49.394;8.686;2023-03-25T00:33:23;99709.81;;;9.61;100.00
60099;BME280;62818;49.394;8.686;2023-03-25T00:34:23;99712.47;;;9.61;100.00
60099;BME280;62818;49.394;8.686;2023-03-25T00:35:24;99721.41;;;9.60;100.00
60099;BME280;62818;49.394;8.686;2023-03-25T00:36:25;99716.09;;;9.75;100.00
60099;BME280;62818;49.394;8.686;2023-03-25T00:37:25;99723.06;;;9.61;100.00
60099;BME280;62818;49.394;8.686;2023-03-25T00:38:27;99709.91;;;9.68;100.00
60099;BME280;62818;49.394;8.686;2023-03-25T00:39:33;99716.28;;;9.59;100.00
60099;BME280;62818;49.394;8.686;2023-03-25T00:40:34;99716.75;;;9.62;100.00
60099;BME280;62818;49.394;8.686;2023-03-25T00:41:35;99715.59;;;9.86;100.00
60099;BME280;62818;49.394;8.686;2023-03-25T00:42:36;99714.28;;;9.61;100.00
60099;BME280;62818;49.394;8.686;2023-03-25T00:43:37;99713.47;;;9.60;100.00
60099;BME280;62818;49.394;8.686;2023-03-25T00:44:37;99706.63;;;9.66;100.00
60099;BME280;62818;49.394;8.686;2023-03-25T00:45:38;99702.44;;;9.57;100.00
60099;BME280;62818;49.394;8.686;2023-03-25T00:46:39;99695.59;;;9.48;100.00
60099;BME280;62818;49.394;8.686;2023-03-25T00:47:40;99699.28;;;9.47;100.00
60099;BME280;62818;49.394;8.686;2023-03-25T00:48:40;99700.47;;;9.44;100.00
60099;BME280;62818;49.394;8.686;2023-03-25T00:49:42;99695.06;;;9.52;100.00
60099;BME280;62818;49.394;8.686;2023-03-25T00:50:42;99702.44;;;9.57;100.00
60099;BME280;62818;49.394;8.686;2023-03-25T00:51:43;99702.78;;;9.54;100.00
60099;BME280;62818;49.394;8.686;2023-03-25T00:52:44;99695.53;;;9.56;100.00
60099;BME280;62818;49.394;8.686;2023-03-25T00:53:45;99694.34;;;9.44;100.00
60099;BME280;62818;49.394;8.686;2023-03-25T00:54:46;99696.78;;;9.60;100.00
60099;BME280;62818;49.394;8.686;2023-03-25T00:55:46;99705.09;;;9.57;100.00
60099;BME280;62818;49.394;8.686;2023-03-25T00:56:48;99705.09;;;9.57;100.00
60099;BME280;62818;49.394;8.686;2023-03-25T00:57:49;99701.53;;;9.50;100.00
60099;BME280;62818;49.394;8.686;2023-03-25T00:58:50;99712.03;;;9.58;100.00
60099;BME280;62818;49.394;8.686;2023-03-25T00:59:51;99708.84;;;9.48;100.00
60099;BME280;62818;49.394;8.686;2023-03-25T01:00:51;99705.91;;;9.43;100.00
60099;BME280;62818;49.394;8.686;2023-03-25T01:01:52;99709.09;;;9.53;100.00
60099;BME280;62818;49.394;8.686;2023-03-25T01:02:55;99692.88;;;9.41;100.00
60099;BME280;62818;49.394;8.686;2023-03-25T01:03:56;99692.81;;;9.35;100.00
60099;BME280;62818;49.394;8.686;2023-03-25T01:04:58;99692.06;;;9.41;100.00
60099;BME280;62818;49.394;8.686;2023-03-25T01:05:59;99697.63;;;9.46;100.00
60099;BME280;62818;49.394;8.686;2023-03-25T01:06:59;99693.88;;;9.55;100.00
60099;BME280;62818;49.394;8.686;2023-03-25T01:08:00;99688.84;;;9.45;100.00
60099;BME280;62818;49.394;8.686;2023-03-25T01:09:04;99692.13;;;9.47;100.00
60099;BME280;62818;49.394;8.686;2023-03-25T01:10:06;99690.78;;;9.37;100.00
60099;BME280;62818;49.394;8.686;2023-03-25T01:11:16;99688.34;;;9.35;100.00
60099;BME280;62818;49.394;8.686;2023-03-25T01:12:21;99684.88;;;9.35;100.00
60099;BME280;62818;49.394;8.686;2023-03-25T01:13:22;99681.13;;;9.44;100.00
60099;BME280;62818;49.394;8.686;2023-03-25T01:14:23;99673.06;;;9.52;100.00
60099;BME280;62818;49.394;8.686;2023-03-25T01:15:26;99671.44;;;9.51;100.00
60099;BME280;62818;49.394;8.686;2023-03-25T01:16:28;99681.00;;;9.52;100.00
60099;BME280;62818;49.394;8.686;2023-03-25T01:17:28;99687.81;;;9.61;100.00
60099;BME280;62818;49.394;8.686;2023-03-25T01:18:29;99682.84;;;9.51;100.00
60099;BME280;62818;49.394;8.686;2023-03-25T01:19:33;99684.56;;;9.59;100.00
60099;BME280;62818;49.394;8.686;2023-03-25T01:20:34;99687.19;;;9.59;100.00
60099;BME280;62818;49.394;8.686;2023-03-25T01:21:35;99675.16;;;9.56;100.00
60099;BME280;62818;49.394;8.686;2023-03-25T01:22:36;99679.00;;;9.54;100.00
60099;BME280;62818;49.394;8.686;2023-03-25T01:23:37;99678.56;;;9.50;100.00
60099;BME280;62818;49.394;8.686;2023-03-25T01:24:37;99688.13;;;9.51;100.00
60099;BME280;62818;49.394;8.686;2023-03-25T01:25:38;99666.03;;;9.59;100.00
60099;BME280;62818;49.394;8.686;2023-03-25T01:26:39;99668.69;;;9.59;100.00
60099;BME280;62818;49.394;8.686;2023-03-25T01:27:42;99675.22;;;9.63;100.00
60099;BME280;62818;49.394;8.686;2023-03-25T01:28:43;99670.63;;;9.50;100.00
60099;BME280;62818;49.394;8.686;2023-03-25T01:29:44;99671.94;;;9.61;100.00
60099;BME280;62818;49.394;8.686;2023-03-25T01:30:45;99671.88;;;9.54;100.00
60099;BME280;62818;49.394;8.686;2023-03-25T01:31:46;99664.97;;;9.53;100.00
60099;BME280;62818;49.394;8.686;2023-03-25T01:32:47;99673.72;;;9.39;100.00
60099;BME280;62818;49.394;8.686;2023-03-25T01:33:48;99670.19;;;9.47;100.00
60099;BME280;62818;49.394;8.686;2023-03-25T01:34:48;99676.09;;;9.49;100.00
60099;BME280;62818;49.394;8.686;2023-03-25T01:35:49;99669.34;;;9.46;100.00
60099;BME280;62818;49.394;8.686;2023-03-25T01:36:50;99672.00;;;9.46;100.00
60099;BME280;62818;49.394;8.686;2023-03-25T01:37:54;99671.78;;;9.48;100.00
60099;BME280;62818;49.394;8.686;2023-03-25T01:38:56;99671.03;;;9.54;100.00
60099;BME280;62818;49.394;8.686;2023-03-25T01:39:58;99665.69;;;9.47;100.00
60099;BME280;62818;49.394;8.686;2023-03-25T01:40:58;99675.47;;;9.47;100.00
60099;BME280;62818;49.394;8.686;2023-03-25T01:41:59;99665.41;;;9.57;100.00
60099;BME280;62818;49.394;8.686;2023-03-25T01:43:00;99669.53;;;9.45;100.00
60099;BME280;62818;49.394;8.686;2023-03-25T01:44:04;99668.00;;;9.36;100.00
60099;BME280;62818;49.394;8.686;2023-03-25T01:45:22;99667.25;;;9.42;100.00
60099;BME280;62818;49.394;8.686;2023-03-25T01:46:25;99672.47;;;9.35;100.00
60099;BME280;62818;49.394;8.686;2023-03-25T01:47:26;99664.13;;;9.53;100.00
60099;BME280;62818;49.394;8.686;2023-03-25T01:48:32;99656.81;;;9.55;100.00
60099;BME280;62818;49.394;8.686;2023-03-25T01:49:42;99659.94;;;9.44;100.00
60099;BME280;62818;49.394;8.686;2023-03-25T01:50:54;99656.81;;;9.55;100.00
60099;BME280;62818;49.394;8.686;2023-03-25T01:52:03;99662.47;;;9.52;100.00
60099;BME280;62818;49.394;8.686;2023-03-25T01:53:09;99657.94;;;9.46;100.00
60099;BME280;62818;49.394;8.686;2023-03-25T01:54:11;99660.84;;;9.51;100.00
60099;BME280;62818;49.394;8.686;2023-03-25T01:55:17;99651.81;;;9.45;100.00
60099;BME280;62818;49.394;8.686;2023-03-25T01:56:25;99658.31;;;9.43;100.00
60099;BME280;62818;49.394;8.686;2023-03-25T01:57:29;99661.13;;;9.41;100.00
60099;BME280;62818;49.394;8.686;2023-03-25T01:58:32;99672.03;;;9.32;100.00
60099;BME280;62818;49.394;8.686;2023-03-25T01:59:35;99671.19;;;9.31;100.00
60099;BME280;62818;49.394;8.686;2023-03-25T02:00:39;99684.22;;;9.33;100.00
60099;BME280;62818;49.394;8.686;2023-03-25T02:01:44;99680.75;;;9.32;100.00
60099;BME280;62818;49.394;8.686;2023-03-25T02:02:46;99690.25;;;9.27;100.00
60099;BME280;62818;49.394;8.686;2023-03-25T02:03:50;99694.09;;;9.24;100.00
60099;BME280;62818;49.394;8.686;2023-03-25T02:05:03;99709.59;;;9.13;100.00
60099;BME280;62818;49.394;8.686;2023-03-25T02:06:27;99718.16;;;9.15;100.00
60099;BME280;62818;49.394;8.686;2023-03-25T02:07:34;99704.69;;;9.10;100.00
60099;BME280;62818;49.394;8.686;2023-03-25T02:08:41;99739.53;;;8.76;100.00
60099;BME280;62818;49.394;8.686;2023-03-25T02:09:43;99739.53;;;8.76;100.00
60099;BME280;62818;49.394;8.686;2023-03-25T02:10:44;99743.44;;;8.65;100.00
60099;BME280;62818;49.394;8.686;2023-03-25T02:11:47;99747.06;;;8.64;100.00
60099;BME280;62818;49.394;8.686;2023-03-25T02:12:48;99732.22;;;8.63;100.00
60099;BME280;62818;49.394;8.686;2023-03-25T02:13:48;99720.72;;;8.56;100.00
60099;BME280;62818;49.394;8.686;2023-03-25T02:14:49;99699.75;;;8.55;100.00
60099;BME280;62818;49.394;8.686;2023-03-25T02:15:54;99678.47;;;8.56;100.00
60099;BME280;62818;49.394;8.686;2023-03-25T02:27:36;99674.66;;;8.59;100.00
60099;BME280;62818;49.394;8.686;2023-03-25T02:35:27;99684.19;;;8.45;100.00
60099;BME280;62818;49.394;8.686;2023-03-25T02:41:18;99696.03;;;8.49;100.00
60099;BME280;62818;49.394;8.686;2023-03-25T02:42:36;99697.59;;;8.58;100.00
60099;BME280;62818;49.394;8.686;2023-03-25T02:43:56;99715.75;;;8.61;100.00
60099;BME280;62818;49.394;8.686;2023-03-25T02:45:17;99710.16;;;8.56;100.00
60099;BME280;62818;49.394;8.686;2023-03-25T02:46:25;99719.38;;;8.75;100.00
60099;BME280;62818;49.394;8.686;2023-03-25T02:47:34;99720.13;;;8.83;100.00
60099;BME280;62818;49.394;8.686;2023-03-25T02:48:59;99720.88;;;8.55;100.00
60099;BME280;62818;49.394;8.686;2023-03-25T02:50:18;99716.16;;;8.50;100.00
60099;BME280;62818;49.394;8.686;2023-03-25T02:51:28;99725.94;;;8.42;100.00
60099;BME280;62818;49.394;8.686;2023-03-25T02:52:41;99720.72;;;8.56;100.00
60099;BME280;62818;49.394;8.686;2023-03-25T02:53:47;99719.56;;;8.59;100.00
60099;BME280;62818;49.394;8.686;2023-03-25T02:54:52;99718.63;;;8.52;100.00
60099;BME280;62818;49.394;8.686;2023-03-25T02:56:00;99723.06;;;8.51;100.00
60099;BME280;62818;49.394;8.686;2023-03-25T02:57:10;99718.34;;;8.47;100.00
60099;BME280;62818;49.394;8.686;2023-03-25T02:58:16;99724.56;;;8.54;99.07
60099;BME280;62818;49.394;8.686;2023-03-25T02:59:20;99718.00;;;8.50;99.68
60099;BME280;62818;49.394;8.686;2023-03-25T03:00:23;99712.69;;;8.50;99.96
60099;BME280;62818;49.394;8.686;2023-03-25T03:01:27;99718.72;;;8.58;99.26
60099;BME280;62818;49.394;8.686;2023-03-25T03:02:28;99719.81;;;8.64;100.00
60099;BME280;62818;49.394;8.686;2023-03-25T03:03:31;99716.84;;;8.67;100.00
60099;BME280;62818;49.394;8.686;2023-03-25T03:04:31;99720.31;;;8.67;99.58
60099;BME280;62818;49.394;8.686;2023-03-25T03:05:43;99721.63;;;8.49;99.09
60099;BME280;62818;49.394;8.686;2023-03-25T03:06:47;99720.44;;;8.51;97.04
60099;BME280;62818;49.394;8.686;2023-03-25T03:07:52;99719.72;;;8.57;97.19
60099;BME280;62818;49.394;8.686;2023-03-25T03:09:27;99714.09;;;8.60;96.88
60099;BME280;62818;49.394;8.686;2023-03-25T03:10:48;99721.56;;;8.57;97.13
60099;BME280;62818;49.394;8.686;2023-03-25T03:14:46;99715.97;;;8.52;96.66
60099;BME280;62818;49.394;8.686;2023-03-25T03:21:41;99701.31;;;8.49;99.16
60099;BME280;62818;49.394;8.686;2023-03-25T03:23:00;99697.25;;;8.61;99.68
60099;BME280;62818;49.394;8.686;2023-03-25T03:24:28;99701.31;;;8.49;98.22
60099;BME280;62818;49.394;8.686;2023-03-25T03:25:37;99694.56;;;8.47;98.95
60099;BME280;62818;49.394;8.686;2023-03-25T03:26:49;99694.84;;;8.52;99.61
60099;BME280;62818;49.394;8.686;2023-03-25T03:28:04;99691.56;;;8.50;100.00
60099;BME280;62818;49.394;8.686;2023-03-25T03:29:27;99691.69;;;8.71;99.59
60099;BME280;62818;49.394;8.686;2023-03-25T03:30:45;99700.25;;;8.58;99.96
60099;BME280;62818;49.394;8.686;2023-03-25T03:32:05;99698.47;;;8.51;100.00
60099;BME280;62818;49.394;8.686;2023-03-25T03:33:58;99700.97;;;8.52;100.00
60099;BME280;62818;49.394;8.686;2023-03-25T03:34:59;99708.47;;;8.41;100.00
60099;BME280;62818;49.394;8.686;2023-03-25T03:36:09;99695.72;;;8.44;100.00
60099;BME280;62818;49.394;8.686;2023-03-25T03:37:35;99699.44;;;8.35;100.00
60099;BME280;62818;49.394;8.686;2023-03-25T03:39:46;99701.38;;;8.41;100.00
60099;BME280;62818;49.394;8.686;2023-03-25T03:40:32;99704.28;;;8.46;100.00
60099;BME280;62818;49.394;8.686;2023-03-25T03:41:40;99702.72;;;8.37;100.00
60099;BME280;62818;49.394;8.686;2023-03-25T03:44:11;99703.91;;;8.35;100.00
60099;BME280;62818;49.394;8.686;2023-03-25T03:45:19;99704.59;;;8.29;100.00
60099;BME280;62818;49.394;8.686;2023-03-25T03:46:30;99702.72;;;8.37;100.00
60099;BME280;62818;49.394;8.686;2023-03-25T03:47:39;99703.81;;;8.28;100.00
60099;BME280;62818;49.394;8.686;2023-03-25T03:48:52;99705.81;;;8.26;100.00
60099;BME280;62818;49.394;8.686;2023-03-25T03:50:04;99698.53;;;8.28;100.00
60099;BME280;62818;49.394;8.686;2023-03-25T03:52:22;99697.19;;;8.24;100.00
60099;BME280;62818;49.394;8.686;2023-03-25T03:53:37;99704.59;;;8.29;100.00
60099;BME280;62818;49.394;8.686;2023-03-25T03:54:51;99693.56;;;8.25;100.00
60099;BME280;62818;49.394;8.686;2023-03-25T03:56:02;99693.06;;;8.30;100.00
60099;BME280;62818;49.394;8.686;2023-03-25T03:57:22;99698.72;;;8.18;100.00
60099;BME280;62818;49.394;8.686;2023-03-25T03:58:33;99710.47;;;8.16;100.00
60099;BME280;62818;49.394;8.686;2023-03-25T04:02:32;99706.44;;;8.28;100.00
60099;BME280;62818;49.394;8.686;2023-03-25T04:03:57;99713.09;;;8.16;100.00
60099;BME280;62818;49.394;8.686;2023-03-25T04:05:00;99701.19;;;8.20;100.00
60099;BME280;62818;49.394;8.686;2023-03-25T04:06:16;99705.47;;;8.21;100.00
60099;BME280;62818;49.394;8.686;2023-03-25T04:07:34;99710.38;;;8.24;100.00
60099;BME280;62818;49.394;8.686;2023-03-25T04:08:56;99712.13;;;8.17;100.00
60099;BME280;62818;49.394;8.686;2023-03-25T04:10:08;99718.56;;;8.14;100.00
60099;BME280;62818;49.394;8.686;2023-03-25T04:11:19;99720.94;;;8.24;100.00
60099;BME280;62818;49.394;8.686;2023-03-25T04:12:28;99716.06;;;8.13;100.00
60099;BME280;62818;49.394;8.686;2023-03-25T04:13:35;99711.81;;;8.12;100.00
60099;BME280;62818;49.394;8.686;2023-03-25T04:14:41;99706.13;;;8.23;100.00
60099;BME280;62818;49.394;8.686;2023-03-25T04:15:42;99711.34;;;8.08;100.00
60099;BME280;62818;49.394;8.686;2023-03-25T04:16:42;99703.91;;;8.12;100.00
60099;BME280;62818;49.394;8.686;2023-03-25T04:17:45;99698.09;;;8.16;100.00
60099;BME280;62818;49.394;8.686;2023-03-25T04:18:47;99708.84;;;8.15;100.00
60099;BME280;62818;49.394;8.686;2023-03-25T04:19:47;99704.47;;;8.22;100.00
60099;BME280;62818;49.394;8.686;2023-03-25T04:20:48;99705.81;;;8.26;100.00
60099;BME280;62818;49.394;8.686;2023-03-25T04:21:48;99706.59;;;8.27;100.00
60099;BME280;62818;49.394;8.686;2023-03-25T04:22:52;99694.88;;;8.29;100.00
60099;BME280;62818;49.394;8.686;2023-03-25T04:23:52;99713.00;;;8.32;100.00
60099;BME280;62818;49.394;8.686;2023-03-25T04:24:53;99711.41;;;8.23;100.00
60099;BME280;62818;49.394;8.686;2023-03-25T04:25:56;99706.75;;;8.25;100.00
60099;BME280;62818;49.394;8.686;2023-03-25T04:26:57;99710.13;;;8.19;100.00
60099;BME280;62818;49.394;8.686;2023-03-25T04:28:02;99708.75;;;8.23;100.00
60099;BME280;62818;49.394;8.686;2023-03-25T04:29:03;99712.38;;;8.30;100.00
60099;BME280;62818;49.394;8.686;2023-03-25T04:30:06;99709.34;;;8.33;100.00
60099;BME280;62818;49.394;8.686;2023-03-25T04:31:16;99717.38;;;8.17;100.00
60099;BME280;62818;49.394;8.686;2023-03-25T04:32:17;99711.63;;;8.13;100.00
60099;BME280;62818;49.394;8.686;2023-03-25T04:33:18;99714.22;;;8.21;100.00
60099;BME280;62818;49.394;8.686;2023-03-25T04:34:19;99714.38;;;8.20;100.00
60099;BME280;62818;49.394;8.686;2023-03-25T04:35:20;99709.75;;;8.22;100.00
60099;BME280;62818;49.394;8.686;2023-03-25T04:36:21;99722.59;;;8.25;100.00
60099;BME280;62818;49.394;8.686;2023-03-25T04:37:24;99716.47;;;8.33;100.00
60099;BME280;62818;49.394;8.686;2023-03-25T04:38:26;99716.69;;;8.23;100.00
60099;BME280;62818;49.394;8.686;2023-03-25T04:39:27;99711.88;;;8.27;100.00
60099;BME280;62818;49.394;8.686;2023-03-25T04:40:31;99720.94;;;8.32;100.00
60099;BME280;62818;49.394;8.686;2023-03-25T04:41:32;99720.22;;;8.38;100.00
60099;BME280;62818;49.394;8.686;2023-03-25T04:42:32;99718.94;;;8.34;100.00
60099;BME280;62818;49.394;8.686;2023-03-25T04:43:37;99717.75;;;8.37;100.00
60099;BME280;62818;49.394;8.686;2023-03-25T04:44:38;99728.56;;;8.27;100.00
60099;BME280;62818;49.394;8.686;2023-03-25T04:45:39;99722.78;;;8.46;100.00
60099;BME280;62818;49.394;8.686;2023-03-25T04:46:41;99716.94;;;8.36;100.00
60099;BME280;62818;49.394;8.686;2023-03-25T04:47:44;99718.22;;;8.40;100.00
60099;BME280;62818;49.394;8.686;2023-03-25T04:48:46;99724.03;;;8.36;100.00
60099;BME280;62818;49.394;8.686;2023-03-25T04:49:47;99728.31;;;8.37;100.00
60099;BME280;62818;49.394;8.686;2023-03-25T04:50:47;99721.28;;;8.29;100.00
60099;BME280;62818;49.394;8.686;2023-03-25T04:51:50;99723.28;;;8.27;100.00
60099;BME280;62818;49.394;8.686;2023-03-25T04:52:52;99723.84;;;8.37;100.00
60099;BME280;62818;49.394;8.686;2023-03-25T04:53:54;99720.44;;;8.29;100.00
60099;BME280;62818;49.394;8.686;2023-03-25T04:54:54;99718.56;;;8.37;100.00
60099;BME280;62818;49.394;8.686;2023-03-25T04:55:55;99721.03;;;8.39;100.00
60099;BME280;62818;49.394;8.686;2023-03-25T04:56:56;99715.91;;;8.37;100.00
60099;BME280;62818;49.394;8.686;2023-03-25T04:57:58;99723.84;;;8.37;100.00
60099;BME280;62818;49.394;8.686;2023-03-25T04:58:58;99719.88;;;8.41;100.00
60099;BME280;62818;49.394;8.686;2023-03-25T04:59:59;99721.50;;;8.42;100.00
60099;BME280;62818;49.394;8.686;2023-03-25T05:00:59;99713.59;;;8.42;100.00
60099;BME280;62818;49.394;8.686;2023-03-25T05:02:05;99715.88;;;8.45;100.00
60099;BME280;62818;49.394;8.686;2023-03-25T05:03:12;99712.16;;;8.54;100.00
60099;BME280;62818;49.394;8.686;2023-03-25T05:04:16;99717.25;;;8.56;100.00
60099;BME280;62818;49.394;8.686;2023-03-25T05:05:19;99727.16;;;8.39;100.00
60099;BME280;62818;49.394;8.686;2023-03-25T05:06:21;99715.88;;;8.45;100.00
60099;BME280;62818;49.394;8.686;2023-03-25T05:07:22;99724.53;;;8.39;100.00
60099;BME280;62818;49.394;8.686;2023-03-25T05:08:23;99717.88;;;8.43;100.00
60099;BME280;62818;49.394;8.686;2023-03-25T05:09:24;99722.78;;;8.46;100.00
60099;BME280;62818;49.394;8.686;2023-03-25T05:10:25;99717.69;;;8.45;100.00
60099;BME280;62818;49.394;8.686;2023-03-25T05:11:30;99717.88;;;8.43;100.00
60099;BME280;62818;49.394;8.686;2023-03-25T05:12:31;99718.22;;;8.40;100.00
60099;BME280;62818;49.394;8.686;2023-03-25T05:13:31;99719.50;;;8.44;100.00
60099;BME280;62818;49.394;8.686;2023-03-25T05:14:31;99715.25;;;8.43;100.00
60099;BME280;62818;49.394;8.686;2023-03-25T05:15:34;99729.09;;;8.45;100.00
60099;BME280;62818;49.394;8.686;2023-03-25T05:16:38;99725.91;;;8.50;100.00
60099;BME280;62818;49.394;8.686;2023-03-25T05:17:39;99722.75;;;8.54;100.00
60099;BME280;62818;49.394;8.686;2023-03-25T05:18:40;99730.06;;;8.44;100.00
60099;BME280;62818;49.394;8.686;2023-03-25T05:19:40;99733.34;;;8.46;100.00
60099;BME280;62818;49.394;8.686;2023-03-25T05:20:44;99733.72;;;8.43;100.00
60099;BME280;62818;49.394;8.686;2023-03-25T05:21:46;99733.66;;;8.51;100.00
60099;BME280;62818;49.394;8.686;2023-03-25T05:22:47;99735.00;;;8.47;100.00
60099;BME280;62818;49.394;8.686;2023-03-25T05:23:47;99744.41;;;8.50;100.00
60099;BME280;62818;49.394;8.686;2023-03-25T05:24:48;99739.66;;;8.45;100.00
60099;BME280;62818;49.394;8.686;2023-03-25T05:25:52;99740.94;;;8.49;100.00
60099;BME280;62818;49.394;8.686;2023-03-25T05:26:52;99739.00;;;8.43;100.00
60099;BME280;62818;49.394;8.686;2023-03-25T05:27:54;99743.28;;;8.44;100.00
60099;BME280;62818;49.394;8.686;2023-03-25T05:28:54;99741.91;;;8.48;100.00
60099;BME280;62818;49.394;8.686;2023-03-25T05:29:56;99753.84;;;8.44;100.00
60099;BME280;62818;49.394;8.686;2023-03-25T05:30:59;99762.13;;;8.41;100.00
60099;BME280;62818;49.394;8.686;2023-03-25T05:31:59;99761.13;;;8.42;100.00
60099;BME280;62818;49.394;8.686;2023-03-25T05:33:00;99760.78;;;8.45;100.00
60099;BME280;62818;49.394;8.686;2023-03-25T05:34:01;99754.97;;;8.50;100.00
60099;BME280;62818;49.394;8.686;2023-03-25T05:35:05;99767.41;;;8.41;100.00
60099;BME280;62818;49.394;8.686;2023-03-25T05:36:07;99770.69;;;8.43;100.00
60099;BME280;62818;49.394;8.686;2023-03-25T05:37:10;99766.69;;;8.47;100.00
60099;BME280;62818;49.394;8.686;2023-03-25T05:38:11;99771.69;;;8.42;100.00
60099;BME280;62818;49.394;8.686;2023-03-25T05:39:12;99766.25;;;8.44;100.00
60099;BME280;62818;49.394;8.686;2023-03-25T05:40:13;99788.53;;;8.41;100.00
60099;BME280;62818;49.394;8.686;2023-03-25T05:41:14;99785.25;;;8.39;100.00
60099;BME280;62818;49.394;8.686;2023-03-25T05:42:18;99771.03;;;8.40;100.00
60099;BME280;62818;49.394;8.686;2023-03-25T05:43:21;99777.16;;;8.41;100.00
60099;BME280;62818;49.394;8.686;2023-03-25T05:44:23;99773.38;;;8.35;100.00
60099;BME280;62818;49.394;8.686;2023-03-25T05:45:25;99767.28;;;8.35;100.00
60099;BME280;62818;49.394;8.686;2023-03-25T05:46:27;99766.78;;;8.39;100.00
60099;BME280;62818;49.394;8.686;2023-03-25T05:47:28;99774.16;;;8.44;100.00
60099;BME280;62818;49.394;8.686;2023-03-25T05:48:30;99774.31;;;8.42;100.00
60099;BME280;62818;49.394;8.686;2023-03-25T05:49:31;99764.94;;;8.40;100.00
60099;BME280;62818;49.394;8.686;2023-03-25T05:50:32;99767.56;;;8.40;100.00
60099;BME280;62818;49.394;8.686;2023-03-25T05:51:33;99766.41;;;8.42;100.00
60099;BME280;62818;49.394;8.686;2023-03-25T05:52:36;99761.13;;;8.42;100.00
60099;BME280;62818;49.394;8.686;2023-03-25T05:53:45;99770.31;;;8.46;100.00
60099;BME280;62818;49.394;8.686;2023-03-25T05:54:49;99775.69;;;8.38;100.00
60099;BME280;62818;49.394;8.686;2023-03-25T05:55:50;99775.84;;;8.37;100.00
60099;BME280;62818;49.394;8.686;2023-03-25T05:56:51;99770.09;;;8.33;100.00
60099;BME280;62818;49.394;8.686;2023-03-25T05:57:51;99773.75;;;8.32;100.00
60099;BME280;62818;49.394;8.686;2023-03-25T05:58:52;99776.38;;;8.32;100.00
60099;BME280;62818;49.394;8.686;2023-03-25T05:59:52;99778.38;;;8.30;100.00
60099;BME280;62818;49.394;8.686;2023-03-25T06:00:53;99780.31;;;8.36;100.00
60099;BME280;62818;49.394;8.686;2023-03-25T06:01:53;99780.66;;;8.33;100.00
60099;BME280;62818;49.394;8.686;2023-03-25T06:02:54;99786.41;;;8.37;100.00
60099;BME280;62818;49.394;8.686;2023-03-25T06:03:54;99784.75;;;8.36;100.00
60099;BME280;62818;49.394;8.686;2023-03-25T06:04:56;99793.81;;;8.41;100.00
60099;BME280;62818;49.394;8.686;2023-03-25T06:05:57;99783.25;;;8.41;100.00
60099;BME280;62818;49.394;8.686;2023-03-25T06:06:57;99788.75;;;8.32;100.00
60099;BME280;62818;49.394;8.686;2023-03-25T06:07:58;99789.72;;;8.39;100.00
60099;BME280;62818;49.394;8.686;2023-03-25T06:08:58;99796.81;;;8.38;100.00
60099;BME280;62818;49.394;8.686;2023-03-25T06:09:59;99798.78;;;8.36;100.00
60099;BME280;62818;49.394;8.686;2023-03-25T06:10:59;99794.34;;;8.37;100.00
60099;BME280;62818;49.394;8.686;2023-03-25T06:12:01;99794.63;;;8.42;100.00
60099;BME280;62818;49.394;8.686;2023-03-25T06:13:03;99795.09;;;8.45;100.00
60099;BME280;62818;49.394;8.686;2023-03-25T06:14:04;99794.63;;;8.42;100.00
60099;BME280;62818;49.394;8.686;2023-03-25T06:15:07;99798.84;;;8.51;100.00
60099;BME280;62818;49.394;8.686;2023-03-25T06:16:08;99791.97;;;8.42;100.00
60099;BME280;62818;49.394;8.686;2023-03-25T06:17:09;99788.16;;;8.44;100.00